Time;durP1;ratioP1;P1;durP2;ratioP2;P2;SDS_P1;SDS_P2;PMS_P1;PMS_P2;Temp;Humidity;BMP_temperature;BMP_pressure;BME280_temperature;BME280_humidity;BME280_pressure;Samples;Min_cycle;Max_cycle;Signal;HPM_P1;HPM_P2
2023/10/08 05:32:37;;;;;;;1.55;1.40;;;;;;;;;;5918796;28;20044;-73
2023/10/08 05:35:48;;;;;;;0.60;0.60;;;;;;;;;;5920921;28;20040;-74
2023/10/08 05:38:48;;;;;;;0.20;0.20;;;;;;;;;;5906114;28;20055;-75
2023/10/08 05:41:51;;;;;;;0.40;0.40;;;;;;;;;;5920342;28;20425;-75
2023/10/08 05:45:14;;;;;;;1.38;0.95;;;;;;;;;;5916727;28;20063;-73
2023/10/08 05:48:13;;;;;;;0.88;0.57;;;;;;;;;;5901816;28;20036;-73
2023/10/08 05:51:23;;;;;;;1.23;0.40;;;;;;;;;;5923615;28;20127;-75
2023/10/08 05:57:38;;;;;;;1.25;0.65;;;;;;;;;;5908699;28;20037;-75
2023/10/08 06:06:43;;;;;;;2.42;1.60;;;;;;;;;;5911045;28;20058;-75
2023/10/08 06:09:37;;;;;;;;;;;;;;;;;;5908526;28;20040;-74
2023/10/08 06:12:39;;;;;;;0.55;0.45;;;;;;;;;;5921171;28;19935;-72
2023/10/08 06:16:30;;;;;;;0.40;0.32;;;;;;;;;;5921073;28;20044;-73
2023/10/08 06:18:56;;;;;;;1.92;1.63;;;;;;;;;;5917330;28;20120;-75
2023/10/08 06:21:46;;;;;;;2.35;1.48;;;;;;;;;;5922609;28;20048;-74
2023/10/08 06:24:38;;;;;;;0.55;0.43;;;;;;;;;;5922831;28;20040;-74
2023/10/08 06:27:32;;;;;;;4.25;0.90;;;;;;;;;;5919600;28;20070;-74
2023/10/08 06:30:24;;;;;;;2.45;1.50;;;;;;;;;;5922807;28;20403;-76
2023/10/08 06:33:19;;;;;;;0.85;0.73;;;;;;;;;;5919647;28;20114;-73
2023/10/08 06:39:03;;;;;;;0.80;0.80;;;;;;;;;;5909483;28;20035;-74
2023/10/08 06:41:57;;;;;;;4.95;1.17;;;;;;;;;;5923570;28;20049;-73
2023/10/08 06:44:48;;;;;;;1.30;0.73;;;;;;;;;;5909224;28;20040;-74
2023/10/08 06:47:40;;;;;;;0.98;0.90;;;;;;;;;;5932926;28;20041;-75
2023/10/08 06:50:31;;;;;;;0.40;0.40;;;;;;;;;;5932988;28;20068;-73
2023/10/08 06:53:23;;;;;;;2.75;0.63;;;;;;;;;;5909091;28;20064;-75
2023/10/08 06:56:15;;;;;;;3.97;1.17;;;;;;;;;;5910095;28;20148;-73
2023/10/08 06:59:09;;;;;;;2.67;1.52;;;;;;;;;;5912780;28;20138;-73
2023/10/08 07:02:01;;;;;;;0.75;0.68;;;;;;;;;;5923639;28;20052;-73
2023/10/08 07:04:52;;;;;;;0.82;0.68;;;;;;;;;;5924657;28;20040;-73
2023/10/08 07:07:44;;;;;;;2.13;1.17;;;;;;;;;;5923438;28;20039;-75
2023/10/08 07:10:35;;;;;;;1.25;1.15;;;;;;;;;;5930891;28;20404;-74
2023/10/08 07:13:29;;;;;;;1.05;0.98;;;;;;;;;;5934842;28;20051;-75
2023/10/08 07:16:20;;;;;;;3.25;1.48;;;;;;;;;;5916171;28;20124;-74
2023/10/08 07:19:17;;;;;;;1.20;0.63;;;;;;;;;;5910438;28;20057;-75
2023/10/08 07:22:21;;;;;;;3.55;1.52;;;;;;;;;;5911224;28;20046;-75
2023/10/08 07:25:15;;;;;;;1.83;0.95;;;;;;;;;;5908626;28;20040;-75
2023/10/08 07:28:06;;;;;;;0.50;0.50;;;;;;;;;;5911848;28;20047;-75
2023/10/08 07:30:57;;;;;;;1.25;0.98;;;;;;;;;;5911307;28;20515;-73
2023/10/08 07:33:56;;;;;;;1.38;1.27;;;;;;;;;;5910800;28;20044;-74
2023/10/08 07:36:50;;;;;;;4.20;1.05;;;;;;;;;;5916559;28;20365;-75
2023/10/08 07:39:48;;;;;;;1.70;1.27;;;;;;;;;;5908316;28;20072;-74
2023/10/08 07:42:39;;;;;;;2.22;1.35;;;;;;;;;;5911642;28;20040;-75
2023/10/08 07:45:35;;;;;;;0.52;0.50;;;;;;;;;;5915097;28;20044;-74
2023/10/08 07:48:29;;;;;;;0.38;0.38;;;;;;;;;;5907588;28;20053;-74
2023/10/08 07:51:22;;;;;;;1.30;1.00;;;;;;;;;;5927239;28;20040;-73
2023/10/08 07:54:16;;;;;;;1.90;0.88;;;;;;;;;;5889936;28;20039;-74
2023/10/08 07:57:11;;;;;;;2.40;1.75;;;;;;;;;;5910322;28;20321;-75
2023/10/08 08:00:18;;;;;;;0.63;0.60;;;;;;;;;;5909081;28;20040;-72
2023/10/08 08:03:11;;;;;;;0.80;0.70;;;;;;;;;;5911035;28;20097;-72
2023/10/08 08:06:06;;;;;;;1.50;1.10;;;;;;;;;;5923500;28;20040;-74
2023/10/08 08:08:57;;;;;;;2.53;1.55;;;;;;;;;;5911836;28;20368;-74
2023/10/08 08:11:48;;;;;;;1.35;0.85;;;;;;;;;;5921046;28;20041;-73
2023/10/08 08:14:41;;;;;;;1.30;1.00;;;;;;;;;;5921978;28;20047;-74
2023/10/08 08:17:33;;;;;;;1.00;0.90;;;;;;;;;;5912872;28;20036;-75
2023/10/08 08:20:35;;;;;;;3.60;1.45;;;;;;;;;;5920848;28;20062;-74
2023/10/08 08:23:26;;;;;;;2.08;1.05;;;;;;;;;;5919632;28;20052;-76
2023/10/08 08:26:28;;;;;;;0.30;0.30;;;;;;;;;;5908412;28;20168;-72
2023/10/08 08:29:20;;;;;;;0.70;0.52;;;;;;;;;;5901988;28;20133;-74
2023/10/08 08:32:21;;;;;;;0.60;0.60;;;;;;;;;;5905935;28;20136;-75
2023/10/08 08:35:16;;;;;;;2.17;0.77;;;;;;;;;;5909517;28;20043;-75
2023/10/08 08:38:08;;;;;;;3.67;1.00;;;;;;;;;;5895307;28;20546;-74
2023/10/08 08:41:06;;;;;;;1.05;0.75;;;;;;;;;;5910057;28;20512;-74
2023/10/08 08:43:58;;;;;;;1.25;0.70;;;;;;;;;;5893140;28;20145;-75
2023/10/08 08:46:49;;;;;;;0.60;0.52;;;;;;;;;;5892100;28;20058;-73
2023/10/08 08:49:42;;;;;;;3.92;1.60;;;;;;;;;;5925368;28;20048;-72
2023/10/08 08:52:33;;;;;;;3.75;2.15;;;;;;;;;;5909563;28;20044;-74
2023/10/08 08:55:25;;;;;;;0.60;0.60;;;;;;;;;;5915745;28;20554;-73
2023/10/08 08:58:16;;;;;;;0.95;0.50;;;;;;;;;;5894136;28;20051;-73
2023/10/08 09:01:12;;;;;;;3.63;0.55;;;;;;;;;;5927238;28;20059;-73
2023/10/08 09:04:07;;;;;;;0.73;0.63;;;;;;;;;;5893000;28;20044;-73
2023/10/08 09:06:59;;;;;;;1.83;1.05;;;;;;;;;;5912186;28;20056;-73
2023/10/08 09:09:56;;;;;;;2.63;0.68;;;;;;;;;;5905214;28;20049;-74
2023/10/08 09:12:47;;;;;;;1.33;1.10;;;;;;;;;;5901215;28;20041;-74
2023/10/08 09:15:38;;;;;;;0.70;0.60;;;;;;;;;;5908493;28;20476;-73
2023/10/08 09:18:29;;;;;;;0.50;0.50;;;;;;;;;;5903961;28;20051;-74
2023/10/08 09:21:22;;;;;;;0.50;0.50;;;;;;;;;;5913845;28;20044;-73
2023/10/08 09:24:18;;;;;;;1.35;0.57;;;;;;;;;;5911058;28;20495;-72
2023/10/08 09:27:14;;;;;;;0.40;0.40;;;;;;;;;;5919395;28;20052;-73
2023/10/08 09:30:08;;;;;;;4.40;0.80;;;;;;;;;;5917566;28;20051;-73
2023/10/08 09:33:00;;;;;;;0.38;0.35;;;;;;;;;;5917434;28;20509;-72
2023/10/08 09:35:57;;;;;;;0.75;0.55;;;;;;;;;;5912588;28;20036;-75
2023/10/08 09:38:49;;;;;;;2.75;0.60;;;;;;;;;;5907838;28;20049;-74
2023/10/08 09:41:41;;;;;;;0.30;0.30;;;;;;;;;;5894230;28;20053;-72
2023/10/08 09:44:32;;;;;;;0.52;0.35;;;;;;;;;;5912488;28;20048;-73
2023/10/08 09:47:26;;;;;;;0.77;0.40;;;;;;;;;;5898690;28;20048;-74
2023/10/08 09:50:24;;;;;;;0.82;0.60;;;;;;;;;;5886174;28;20056;-73
2023/10/08 09:53:19;;;;;;;0.20;0.20;;;;;;;;;;5912008;28;20432;-74
2023/10/08 09:56:15;;;;;;;0.68;0.43;;;;;;;;;;5907872;28;20045;-73
2023/10/08 09:59:10;;;;;;;4.25;0.65;;;;;;;;;;5909277;28;20051;-74
2023/10/08 10:02:03;;;;;;;0.32;0.32;;;;;;;;;;5925993;28;20052;-74
2023/10/08 10:04:55;;;;;;;11.52;0.90;;;;;;;;;;5923744;28;20055;-72
2023/10/08 10:07:48;;;;;;;0.30;0.20;;;;;;;;;;5913346;28;20423;-74
2023/10/08 10:10:39;;;;;;;0.30;0.30;;;;;;;;;;5914274;28;20044;-72
2023/10/08 10:13:46;;;;;;;2.08;0.50;;;;;;;;;;5920051;28;20036;-74
2023/10/08 10:16:41;;;;;;;0.30;0.30;;;;;;;;;;5920181;28;20102;-73
2023/10/08 10:19:32;;;;;;;0.20;0.20;;;;;;;;;;5922747;28;20521;-73
2023/10/08 10:22:35;;;;;;;1.17;0.40;;;;;;;;;;5917046;28;20045;-73
2023/10/08 10:25:37;;;;;;;0.57;0.43;;;;;;;;;;5922155;28;20078;-74
2023/10/08 10:28:29;;;;;;;0.95;0.80;;;;;;;;;;5920733;28;20048;-73
2023/10/08 10:31:20;;;;;;;1.17;0.60;;;;;;;;;;5923568;28;20044;-74
2023/10/08 10:34:15;;;;;;;0.25;0.25;;;;;;;;;;5926779;28;20036;-74
2023/10/08 10:37:20;;;;;;;0.93;0.68;;;;;;;;;;5923468;28;20048;-74
2023/10/08 10:40:12;;;;;;;2.42;0.47;;;;;;;;;;5899406;28;20049;-71
2023/10/08 10:43:06;;;;;;;1.67;0.38;;;;;;;;;;5908770;28;20045;-72
2023/10/08 10:52:11;;;;;;;0.28;0.17;;;;;;;;;;5921922;28;20375;-74
2023/10/08 10:58:14;;;;;;;0.30;0.30;;;;;;;;;;5900436;28;20047;-75
2023/10/08 11:01:23;;;;;;;0.90;0.25;;;;;;;;;;5915204;28;20040;-74
2023/10/08 11:04:17;;;;;;;0.55;0.55;;;;;;;;;;5899647;28;20044;-72
2023/10/08 11:07:08;;;;;;;1.17;0.47;;;;;;;;;;5901610;28;20387;-73
2023/10/08 11:10:00;;;;;;;1.10;0.50;;;;;;;;;;5889019;28;20057;-73
2023/10/08 11:12:54;;;;;;;0.17;0.17;;;;;;;;;;5899245;28;20051;-72
2023/10/08 11:15:49;;;;;;;5.57;0.55;;;;;;;;;;5897459;28;20052;-74
2023/10/08 11:18:49;;;;;;;2.25;0.35;;;;;;;;;;5906476;28;20142;-73
2023/10/08 11:21:51;;;;;;;1.52;0.50;;;;;;;;;;5915718;28;20052;-72
2023/10/08 11:24:47;;;;;;;0.73;0.57;;;;;;;;;;5894088;28;20060;-72
2023/10/08 11:27:38;;;;;;;0.52;0.43;;;;;;;;;;5910632;28;20048;-74
2023/10/08 11:30:31;;;;;;;0.70;0.60;;;;;;;;;;5911555;28;20041;-73
2023/10/08 11:33:22;;;;;;;1.13;0.50;;;;;;;;;;5929518;28;20058;-72
2023/10/08 11:36:22;;;;;;;1.10;0.30;;;;;;;;;;5933409;28;20114;-72
2023/10/08 11:39:21;;;;;;;0.40;0.40;;;;;;;;;;5884089;28;20333;-73
2023/10/08 11:47:12;;;;;;;0.20;0.20;;;;;;;;;;5902223;28;20486;-73
2023/10/08 11:50:10;;;;;;;0.25;0.13;;;;;;;;;;5925319;28;20063;-72
2023/10/08 11:53:08;;;;;;;0.10;0.10;;;;;;;;;;5928825;28;20054;-74
2023/10/08 11:55:59;;;;;;;1.53;0.50;;;;;;;;;;5928273;28;20048;-73
2023/10/08 11:58:51;;;;;;;0.43;0.25;;;;;;;;;;5909777;28;20044;-73
2023/10/08 12:01:42;;;;;;;0.32;0.32;;;;;;;;;;5894668;28;20434;-73
2023/10/08 12:04:33;;;;;;;0.60;0.32;;;;;;;;;;5910857;28;20179;-74
2023/10/08 12:07:27;;;;;;;0.30;0.30;;;;;;;;;;5918936;28;20045;-73
2023/10/08 12:10:22;;;;;;;1.42;0.70;;;;;;;;;;5918677;28;20103;-73
2023/10/08 12:13:16;;;;;;;0.17;0.15;;;;;;;;;;5906969;28;21113;-73
2023/10/08 12:16:21;;;;;;;0.55;0.22;;;;;;;;;;5902998;28;20488;-74
2023/10/08 12:19:17;;;;;;;0.30;0.30;;;;;;;;;;5918714;28;20070;-73
2023/10/08 12:22:17;;;;;;;1.35;0.73;;;;;;;;;;5908410;28;20131;-73
2023/10/08 12:29:39;;;;;;;1.73;0.20;;;;;;;;;;5877709;28;20056;-74
2023/10/08 12:32:30;;;;;;;0.20;0.20;;;;;;;;;;5897851;28;20040;-72
2023/10/08 12:35:24;;;;;;;0.00;0.00;;;;;;;;;;5904101;28;20079;-73
2023/10/08 12:38:14;;;;;;;1.45;0.35;;;;;;;;;;5901402;28;20505;-73
2023/10/08 12:41:11;;;;;;;0.13;0.10;;;;;;;;;;5904574;28;20037;-74
2023/10/08 12:44:07;;;;;;;1.17;0.63;;;;;;;;;;5910004;28;20059;-73
2023/10/08 12:46:59;;;;;;;0.60;0.47;;;;;;;;;;5901265;28;20044;-74
2023/10/08 12:49:52;;;;;;;0.77;0.20;;;;;;;;;;5887049;28;20095;-72
2023/10/08 12:52:52;;;;;;;1.60;0.32;;;;;;;;;;5903086;28;20396;-73
2023/10/08 12:55:43;;;;;;;1.02;0.60;;;;;;;;;;5886133;28;20168;-74
2023/10/08 12:58:44;;;;;;;0.68;0.50;;;;;;;;;;5886682;28;20052;-73
2023/10/08 13:01:36;;;;;;;0.57;0.40;;;;;;;;;;5886131;28;20052;-72
2023/10/08 13:04:34;;;;;;;0.28;0.25;;;;;;;;;;5886678;28;20445;-72
2023/10/08 13:07:26;;;;;;;1.60;0.57;;;;;;;;;;5886806;28;20999;-73
2023/10/08 13:10:17;;;;;;;2.70;0.90;;;;;;;;;;5886624;28;20053;-71
2023/10/08 13:13:08;;;;;;;0.50;0.50;;;;;;;;;;5887395;28;20044;-73
2023/10/08 13:16:02;;;;;;;0.55;0.38;;;;;;;;;;5891680;28;20157;-71
2023/10/08 13:18:56;;;;;;;0.55;0.30;;;;;;;;;;5902604;28;20413;-71
2023/10/08 13:21:52;;;;;;;0.90;0.63;;;;;;;;;;5922743;28;20056;-73
2023/10/08 13:24:43;;;;;;;0.55;0.40;;;;;;;;;;5917004;28;20045;-72
2023/10/08 13:27:38;;;;;;;2.38;0.75;;;;;;;;;;5908711;28;20134;-73
2023/10/08 13:30:29;;;;;;;0.28;0.28;;;;;;;;;;5926419;28;20475;-72
2023/10/08 13:33:22;;;;;;;3.92;0.75;;;;;;;;;;5936040;28;20471;-72
2023/10/08 13:36:14;;;;;;;1.70;0.32;;;;;;;;;;5934550;28;20059;-73
2023/10/08 13:39:09;;;;;;;0.38;0.32;;;;;;;;;;5897034;28;20066;-74
2023/10/08 13:42:01;;;;;;;0.40;0.30;;;;;;;;;;5917843;28;20047;-73
2023/10/08 13:44:53;;;;;;;0.28;0.28;;;;;;;;;;5911401;28;20090;-73
2023/10/08 13:47:47;;;;;;;0.43;0.40;;;;;;;;;;5919047;28;20645;-72
2023/10/08 13:50:38;;;;;;;0.30;0.30;;;;;;;;;;5913761;28;20083;-75
2023/10/08 13:53:32;;;;;;;1.48;0.43;;;;;;;;;;5931280;28;20127;-71
2023/10/08 13:56:32;;;;;;;1.65;0.40;;;;;;;;;;5930558;28;20055;-72
2023/10/08 13:59:24;;;;;;;0.88;0.65;;;;;;;;;;5913696;28;20175;-72
2023/10/08 14:02:15;;;;;;;5.10;1.05;;;;;;;;;;5921769;28;20059;-72
2023/10/08 14:05:08;;;;;;;1.10;0.82;;;;;;;;;;5937300;28;20047;-72
2023/10/08 14:08:02;;;;;;;1.80;1.20;;;;;;;;;;5919581;28;20521;-72
2023/10/08 14:10:53;;;;;;;3.28;1.58;;;;;;;;;;5913239;28;20044;-72
2023/10/08 14:13:47;;;;;;;1.10;0.95;;;;;;;;;;5932857;28;20552;-71
2023/10/08 14:16:42;;;;;;;2.47;1.35;;;;;;;;;;5930592;28;20059;-71
2023/10/08 14:19:39;;;;;;;2.38;1.83;;;;;;;;;;5909783;28;20059;-73
2023/10/08 14:22:31;;;;;;;4.90;2.25;;;;;;;;;;5901408;28;20044;-71
2023/10/08 14:25:27;;;;;;;2.83;1.67;;;;;;;;;;5935117;28;20051;-72
2023/10/08 14:31:32;;;;;;;1.30;0.70;;;;;;;;;;5880230;28;20044;-71
2023/10/08 14:43:59;;;;;;;4.03;0.80;;;;;;;;;;5934991;28;20050;-71
2023/10/08 14:46:50;;;;;;;4.78;0.57;;;;;;;;;;5918782;28;20499;-71
2023/10/08 14:49:45;;;;;;;0.60;0.30;;;;;;;;;;5918809;28;20055;-72
2023/10/08 14:57:07;;;;;;;0.43;0.30;;;;;;;;;;5933787;28;20063;-73
2023/10/08 14:59:58;;;;;;;0.13;0.13;;;;;;;;;;5919154;28;20380;-73
2023/10/08 15:02:49;;;;;;;0.70;0.63;;;;;;;;;;5936694;28;20058;-72
2023/10/08 15:05:40;;;;;;;0.20;0.13;;;;;;;;;;5936274;28;20478;-71
2023/10/08 15:08:32;;;;;;;2.30;1.45;;;;;;;;;;5935356;28;20523;-72
2023/10/08 15:11:25;;;;;;;1.65;0.95;;;;;;;;;;5936396;28;20080;-72
2023/10/08 15:14:22;;;;;;;2.08;0.75;;;;;;;;;;5936561;28;20044;-73
2023/10/08 15:17:14;;;;;;;2.28;1.20;;;;;;;;;;5936262;28;20066;-71
2023/10/08 15:20:06;;;;;;;1.48;0.73;;;;;;;;;;5936345;28;20047;-71
2023/10/08 15:22:57;;;;;;;0.85;0.60;;;;;;;;;;5936621;28;20153;-73
2023/10/08 15:25:49;;;;;;;0.80;0.65;;;;;;;;;;5935952;28;20522;-71
2023/10/08 15:28:40;;;;;;;1.52;0.57;;;;;;;;;;5935841;28;20051;-71
2023/10/08 15:31:31;;;;;;;1.13;0.50;;;;;;;;;;5935637;28;20048;-71
2023/10/08 15:34:23;;;;;;;1.77;1.05;;;;;;;;;;5935728;28;20398;-73
2023/10/08 15:37:26;;;;;;;4.22;3.03;;;;;;;;;;5934804;28;20367;-72
2023/10/08 15:40:17;;;;;;;7.50;4.07;;;;;;;;;;5935473;28;20380;-71
2023/10/08 15:43:08;;;;;;;6.85;4.13;;;;;;;;;;5917057;28;20040;-73
2023/10/08 15:45:59;;;;;;;5.53;3.83;;;;;;;;;;5935388;28;20479;-72
2023/10/08 15:48:50;;;;;;;5.30;2.20;;;;;;;;;;5918880;28;20068;-72
2023/10/08 15:51:41;;;;;;;3.75;1.83;;;;;;;;;;5892861;28;20048;-72
2023/10/08 15:54:32;;;;;;;2.33;1.15;;;;;;;;;;5908343;28;20049;-72
2023/10/08 15:57:23;;;;;;;0.68;0.65;;;;;;;;;;5910670;28;20144;-72
2023/10/08 16:00:14;;;;;;;7.00;3.08;;;;;;;;;;5909690;28;20040;-72
2023/10/08 16:03:05;;;;;;;7.18;2.42;;;;;;;;;;5902299;28;20116;-73
2023/10/08 16:05:56;;;;;;;2.53;1.42;;;;;;;;;;5894775;28;20124;-73
2023/10/08 16:08:48;;;;;;;6.15;2.50;;;;;;;;;;5887600;28;20440;-73
2023/10/08 16:11:39;;;;;;;6.10;2.92;;;;;;;;;;5889877;28;20047;-72
2023/10/08 16:14:30;;;;;;;12.73;3.72;;;;;;;;;;5902187;28;20052;-72
2023/10/08 16:17:21;;;;;;;5.70;3.63;;;;;;;;;;5892578;28;20052;-72
2023/10/08 16:20:15;;;;;;;10.85;4.95;;;;;;;;;;5910034;28;20459;-72
2023/10/08 16:23:07;;;;;;;10.25;4.22;;;;;;;;;;5910688;28;20036;-72
2023/10/08 16:25:57;;;;;;;5.20;4.00;;;;;;;;;;5908455;28;20156;-72
2023/10/08 16:28:49;;;;;;;13.10;9.10;;;;;;;;;;5879215;28;20048;-72
2023/10/08 16:31:43;;;;;;;30.60;18.15;;;;;;;;;;5907003;28;20037;-73
2023/10/08 16:34:34;;;;;;;18.17;11.52;;;;;;;;;;5894459;28;20041;-72
2023/10/08 16:37:25;;;;;;;17.88;9.57;;;;;;;;;;5884381;28;20111;-72
2023/10/08 16:40:16;;;;;;;7.55;3.28;;;;;;;;;;5884955;28;20040;-72
2023/10/08 16:43:11;;;;;;;4.38;3.97;;;;;;;;;;5889789;28;20052;-72
2023/10/08 16:46:05;;;;;;;10.13;5.28;;;;;;;;;;5919210;28;20045;-72
2023/10/08 16:48:56;;;;;;;9.30;6.60;;;;;;;;;;5909661;28;20474;-72
2023/10/08 16:51:47;;;;;;;16.35;9.43;;;;;;;;;;5908016;28;20040;-72
2023/10/08 16:54:38;;;;;;;4.90;2.72;;;;;;;;;;5905612;28;20044;-73
2023/10/08 16:57:28;;;;;;;12.10;7.97;;;;;;;;;;5894756;28;20141;-72
2023/10/08 17:00:21;;;;;;;9.00;7.90;;;;;;;;;;5897058;28;20481;-73
2023/10/08 17:03:12;;;;;;;9.82;5.97;;;;;;;;;;5901187;28;20041;-73
2023/10/08 17:06:09;;;;;;;6.32;2.95;;;;;;;;;;5892320;28;20055;-73
2023/10/08 17:09:00;;;;;;;4.78;2.38;;;;;;;;;;5886982;28;20098;-72
2023/10/08 17:11:52;;;;;;;10.95;3.05;;;;;;;;;;5891888;28;20487;-72
2023/10/08 17:14:43;;;;;;;5.60;4.60;;;;;;;;;;5927648;28;20040;-72
2023/10/08 17:17:33;;;;;;;5.63;3.03;;;;;;;;;;5909626;28;20045;-72
2023/10/08 17:20:24;;;;;;;3.58;2.97;;;;;;;;;;5909159;28;20139;-72
2023/10/08 17:23:15;;;;;;;18.70;9.95;;;;;;;;;;5919332;28;20059;-72
2023/10/08 17:26:06;;;;;;;33.88;18.50;;;;;;;;;;5917870;28;20053;-73
2023/10/08 17:28:57;;;;;;;24.02;14.70;;;;;;;;;;5892234;28;20044;-73
2023/10/08 17:31:49;;;;;;;18.98;13.00;;;;;;;;;;5894189;28;20049;-72
2023/10/08 17:34:40;;;;;;;11.48;7.05;;;;;;;;;;5903686;28;20418;-72
2023/10/08 17:37:34;;;;;;;8.68;4.70;;;;;;;;;;5894071;28;20052;-71
2023/10/08 17:40:25;;;;;;;13.27;5.70;;;;;;;;;;5897772;28;20373;-74
2023/10/08 17:43:20;;;;;;;7.93;6.90;;;;;;;;;;5900645;28;20044;-73
2023/10/08 17:46:12;;;;;;;19.70;9.38;;;;;;;;;;5894708;28;20052;-72
2023/10/08 17:49:04;;;;;;;24.70;12.48;;;;;;;;;;5883175;28;20052;-72
2023/10/08 17:51:56;;;;;;;28.35;13.65;;;;;;;;;;5886004;28;20499;-72
2023/10/08 17:54:47;;;;;;;20.05;10.93;;;;;;;;;;5899304;28;20041;-72
2023/10/08 17:57:41;;;;;;;17.30;9.25;;;;;;;;;;5893876;28;20507;-73
2023/10/08 18:00:33;;;;;;;17.45;10.00;;;;;;;;;;5900187;28;20475;-71
2023/10/08 18:03:24;;;;;;;15.40;8.50;;;;;;;;;;5904757;28;20040;-72
2023/10/08 18:06:15;;;;;;;15.23;9.82;;;;;;;;;;5898102;28;20041;-72
2023/10/08 18:09:10;;;;;;;18.90;9.18;;;;;;;;;;5887270;28;20045;-72
2023/10/08 18:12:01;;;;;;;22.45;10.85;;;;;;;;;;5895731;28;20059;-72
2023/10/08 18:14:52;;;;;;;19.83;9.60;;;;;;;;;;5919282;28;20052;-72
2023/10/08 18:17:44;;;;;;;17.30;6.15;;;;;;;;;;5912818;28;20040;-72
2023/10/08 18:20:43;;;;;;;19.35;8.25;;;;;;;;;;5878665;28;20130;-71
2023/10/08 18:23:39;;;;;;;9.60;6.13;;;;;;;;;;5912686;28;20044;-72
2023/10/08 18:26:30;;;;;;;12.13;7.35;;;;;;;;;;5912883;28;20451;-73
2023/10/08 18:29:21;;;;;;;8.32;4.85;;;;;;;;;;5912557;28;20063;-72
2023/10/08 18:32:11;;;;;;;7.47;4.95;;;;;;;;;;5912744;28;20403;-71
2023/10/08 18:35:05;;;;;;;7.80;5.82;;;;;;;;;;5912123;28;20040;-73
2023/10/08 18:37:59;;;;;;;4.68;4.28;;;;;;;;;;5905024;28;20111;-72
2023/10/08 18:40:51;;;;;;;5.05;4.55;;;;;;;;;;5912789;28;20041;-72
2023/10/08 18:43:43;;;;;;;11.48;5.70;;;;;;;;;;5911048;28;20056;-72
2023/10/08 18:46:34;;;;;;;13.25;5.47;;;;;;;;;;5882575;28;20493;-72
2023/10/08 18:49:28;;;;;;;6.47;5.07;;;;;;;;;;5888575;28;20472;-72
2023/10/08 18:52:24;;;;;;;7.30;5.32;;;;;;;;;;5888434;28;20056;-71
2023/10/08 18:55:15;;;;;;;9.02;3.75;;;;;;;;;;5888353;28;20491;-73
2023/10/08 18:58:06;;;;;;;9.35;3.83;;;;;;;;;;5905747;28;20051;-72
2023/10/08 19:00:57;;;;;;;5.30;3.47;;;;;;;;;;5911719;28;20048;-72
2023/10/08 19:03:48;;;;;;;7.22;3.47;;;;;;;;;;5896654;28;20071;-73
2023/10/08 19:06:38;;;;;;;8.32;3.65;;;;;;;;;;5887275;28;20528;-72
2023/10/08 19:09:30;;;;;;;4.45;3.63;;;;;;;;;;5888006;28;20047;-72
2023/10/08 19:12:21;;;;;;;5.40;3.38;;;;;;;;;;5890266;28;20072;-72
2023/10/08 19:15:16;;;;;;;4.75;3.83;;;;;;;;;;5903466;28;20048;-73
2023/10/08 19:18:08;;;;;;;4.72;3.00;;;;;;;;;;5896590;28;20041;-71
2023/10/08 19:20:59;;;;;;;4.15;3.20;;;;;;;;;;5884645;28;20045;-72
2023/10/08 19:23:50;;;;;;;5.28;2.83;;;;;;;;;;5907336;28;20119;-73
2023/10/08 19:26:42;;;;;;;9.70;2.80;;;;;;;;;;5894360;28;20040;-73
2023/10/08 19:29:34;;;;;;;2.80;2.45;;;;;;;;;;5883183;28;20183;-72
2023/10/08 19:32:25;;;;;;;7.18;3.05;;;;;;;;;;5909601;28;20685;-73
2023/10/08 19:35:21;;;;;;;3.88;2.50;;;;;;;;;;5896628;28;20128;-73
2023/10/08 19:38:15;;;;;;;9.25;3.75;;;;;;;;;;5885270;28;20049;-74
2023/10/08 19:41:17;;;;;;;1.77;1.58;;;;;;;;;;5887081;28;20033;-73
2023/10/08 19:44:10;;;;;;;2.80;2.30;;;;;;;;;;5875962;28;20044;-72
2023/10/08 19:47:02;;;;;;;6.97;3.85;;;;;;;;;;5887232;28;20353;-75
2023/10/08 19:49:53;;;;;;;5.05;2.58;;;;;;;;;;5887486;28;20049;-71
2023/10/08 19:52:49;;;;;;;2.83;2.30;;;;;;;;;;5886983;28;20044;-72
2023/10/08 19:55:42;;;;;;;2.50;2.30;;;;;;;;;;5893437;28;20107;-72
2023/10/08 19:58:38;;;;;;;6.40;4.97;;;;;;;;;;5886676;28;20507;-73
2023/10/08 20:01:28;;;;;;;7.57;5.35;;;;;;;;;;5886501;28;20606;-72
2023/10/08 20:04:20;;;;;;;5.50;4.95;;;;;;;;;;5900847;28;20045;-72
2023/10/08 20:07:12;;;;;;;7.47;3.92;;;;;;;;;;5891667;28;20041;-74
2023/10/08 20:10:04;;;;;;;9.40;5.05;;;;;;;;;;5886315;28;20376;-73
2023/10/08 20:12:54;;;;;;;3.80;2.90;;;;;;;;;;5886856;28;20068;-72
2023/10/08 20:15:45;;;;;;;9.27;7.47;;;;;;;;;;5886033;28;20045;-72
2023/10/08 20:18:36;;;;;;;4.95;3.35;;;;;;;;;;5886360;28;20492;-72
2023/10/08 20:21:28;;;;;;;6.32;4.45;;;;;;;;;;5902462;28;20356;-72
2023/10/08 20:24:19;;;;;;;6.57;3.10;;;;;;;;;;5906495;28;20415;-72
2023/10/08 20:27:09;;;;;;;6.85;4.05;;;;;;;;;;5884224;28;20168;-72
2023/10/08 20:30:04;;;;;;;8.30;4.88;;;;;;;;;;5887263;28;20463;-72
2023/10/08 20:32:55;;;;;;;12.57;4.88;;;;;;;;;;5900704;28;20041;-73
2023/10/08 20:35:52;;;;;;;12.77;3.88;;;;;;;;;;5885871;28;20052;-71
2023/10/08 20:38:43;;;;;;;4.55;3.08;;;;;;;;;;5886748;28;20447;-72
2023/10/08 20:41:37;;;;;;;2.38;2.13;;;;;;;;;;5887233;28;20053;-73
2023/10/08 20:44:33;;;;;;;4.95;3.40;;;;;;;;;;5885683;28;20527;-71
2023/10/08 20:47:25;;;;;;;5.05;3.22;;;;;;;;;;5884925;28;20056;-72
2023/10/08 20:50:16;;;;;;;3.70;1.50;;;;;;;;;;5886334;28;20067;-73
2023/10/08 20:53:23;;;;;;;4.10;2.47;;;;;;;;;;5886287;28;20071;-72
2023/10/08 20:56:15;;;;;;;4.32;3.92;;;;;;;;;;5899164;28;20060;-72
2023/10/08 20:59:08;;;;;;;5.78;3.30;;;;;;;;;;5886133;28;20072;-71
2023/10/08 21:01:58;;;;;;;9.40;2.20;;;;;;;;;;5868768;28;20048;-71
2023/10/08 21:04:49;;;;;;;2.97;1.92;;;;;;;;;;5901129;28;20047;-72
2023/10/08 21:07:42;;;;;;;2.88;2.30;;;;;;;;;;5875021;28;20049;-71
2023/10/08 21:10:38;;;;;;;4.35;1.95;;;;;;;;;;5909486;28;20049;-72
2023/10/08 21:13:33;;;;;;;2.28;1.45;;;;;;;;;;5909083;28;20048;-72
2023/10/08 21:16:24;;;;;;;1.52;1.38;;;;;;;;;;5909696;28;20365;-72
2023/10/08 21:19:15;;;;;;;1.73;1.63;;;;;;;;;;5909599;28;20096;-73
2023/10/08 21:22:06;;;;;;;4.18;2.25;;;;;;;;;;5909169;28;20040;-73
2023/10/08 21:24:57;;;;;;;4.57;2.05;;;;;;;;;;5910014;28;20373;-71
2023/10/08 21:27:54;;;;;;;1.27;1.17;;;;;;;;;;5909086;28;20041;-71
2023/10/08 21:30:45;;;;;;;1.45;1.20;;;;;;;;;;5908790;28;20063;-72
2023/10/08 21:33:37;;;;;;;3.72;2.05;;;;;;;;;;5870049;28;20045;-72
2023/10/08 21:36:28;;;;;;;3.25;1.98;;;;;;;;;;5898084;28;20404;-71
2023/10/08 21:39:20;;;;;;;2.38;1.58;;;;;;;;;;5890249;28;20049;-72
2023/10/08 21:42:10;;;;;;;2.08;1.75;;;;;;;;;;5879333;28;20190;-72
2023/10/08 21:45:03;;;;;;;3.90;2.10;;;;;;;;;;5889319;28;20041;-71
2023/10/08 21:47:54;;;;;;;11.00;2.72;;;;;;;;;;5883306;28;20068;-72
2023/10/08 21:50:48;;;;;;;3.42;2.08;;;;;;;;;;5871726;28;20060;-72
2023/10/08 21:53:39;;;;;;;1.60;1.23;;;;;;;;;;5889931;28;20045;-73
2023/10/08 21:56:29;;;;;;;2.15;0.80;;;;;;;;;;5889739;28;20049;-73
2023/10/08 21:59:20;;;;;;;3.40;1.63;;;;;;;;;;5892891;28;22759;-71
2023/10/08 22:02:11;;;;;;;2.30;2.03;;;;;;;;;;5895328;28;20076;-73
2023/10/08 22:05:03;;;;;;;1.52;1.20;;;;;;;;;;5890304;28;20053;-72
2023/10/08 22:07:53;;;;;;;1.48;1.15;;;;;;;;;;5882501;28;20401;-71
2023/10/08 22:10:44;;;;;;;3.58;1.90;;;;;;;;;;5890181;28;20045;-72
2023/10/08 22:13:38;;;;;;;1.42;1.33;;;;;;;;;;5890127;28;20510;-72
2023/10/08 22:16:32;;;;;;;1.23;1.08;;;;;;;;;;5880507;28;20392;-72
2023/10/08 22:19:23;;;;;;;1.67;1.33;;;;;;;;;;5875762;28;20044;-71
2023/10/08 22:22:17;;;;;;;2.22;1.92;;;;;;;;;;5894660;28;20045;-72
2023/10/08 22:25:12;;;;;;;31.25;2.03;;;;;;;;;;5889857;28;20044;-71
2023/10/08 22:28:17;;;;;;;6.28;2.20;;;;;;;;;;5890123;28;20049;-72
2023/10/08 22:31:09;;;;;;;3.40;1.77;;;;;;;;;;5873822;28;20511;-73
2023/10/08 22:34:28;;;;;;;2.40;1.65;;;;;;;;;;5890098;28;20049;-72
2023/10/08 22:37:19;;;;;;;2.67;1.20;;;;;;;;;;5907584;28;20052;-72
2023/10/08 22:40:16;;;;;;;2.10;1.90;;;;;;;;;;5897381;28;20049;-72
2023/10/08 22:43:07;;;;;;;1.98;1.33;;;;;;;;;;5889029;28;20427;-71
2023/10/08 22:45:58;;;;;;;11.07;2.20;;;;;;;;;;5896652;28;20045;-72
2023/10/08 22:48:53;;;;;;;2.28;2.08;;;;;;;;;;5912105;28;20081;-71
2023/10/08 22:51:46;;;;;;;6.93;2.72;;;;;;;;;;5912017;28;20127;-71
2023/10/08 22:54:37;;;;;;;3.92;1.77;;;;;;;;;;5911942;28;20128;-72
2023/10/08 22:57:28;;;;;;;1.70;1.60;;;;;;;;;;5911963;28;20135;-72
2023/10/08 23:00:26;;;;;;;3.63;2.08;;;;;;;;;;5911833;28;20047;-72
2023/10/08 23:03:24;;;;;;;2.97;2.03;;;;;;;;;;5895327;28;20076;-71
2023/10/08 23:06:17;;;;;;;2.25;1.63;;;;;;;;;;5894801;28;20049;-71
2023/10/08 23:09:13;;;;;;;3.15;1.35;;;;;;;;;;5893800;28;20040;-72
2023/10/08 23:12:06;;;;;;;6.40;2.13;;;;;;;;;;5894802;28;20376;-71
2023/10/08 23:14:58;;;;;;;3.83;2.00;;;;;;;;;;5912472;28;20041;-73
2023/10/08 23:17:50;;;;;;;1.60;1.42;;;;;;;;;;5911583;28;20124;-71
2023/10/08 23:20:43;;;;;;;1.73;1.15;;;;;;;;;;5911670;28;20045;-71
2023/10/08 23:23:35;;;;;;;4.88;2.42;;;;;;;;;;5894310;28;20090;-72
2023/10/08 23:26:26;;;;;;;1.42;1.27;;;;;;;;;;5894131;28;20049;-71
2023/10/08 23:29:17;;;;;;;1.38;1.27;;;;;;;;;;5910588;28;20044;-71
2023/10/08 23:32:07;;;;;;;5.03;1.77;;;;;;;;;;5910179;28;20049;-74
2023/10/08 23:35:02;;;;;;;2.15;1.63;;;;;;;;;;5912236;28;20055;-71
2023/10/08 23:38:05;;;;;;;2.55;1.20;;;;;;;;;;5911825;28;20040;-71